createdAt,value
2016-04-02T00:00:55.317Z,10.19
2016-04-02T00:01:55.538Z,10.15
2016-04-02T00:02:55.369Z,10.12
2016-04-02T00:03:55.404Z,10.12
2016-04-02T00:04:55.343Z,10.12
2016-04-02T00:05:55.252Z,10.1
2016-04-02T00:06:55.599Z,10.09
2016-04-02T00:07:55.164Z,10.1
2016-04-02T00:08:55.792Z,10.09
2016-04-02T00:09:55.340Z,10.21
2016-04-02T00:10:56.329Z,10.1
2016-04-02T00:11:55.925Z,10.14
2016-04-02T00:12:55.053Z,10.17
2016-04-02T00:13:55.024Z,10.06
2016-04-02T00:14:55.183Z,10.04
2016-04-02T00:15:55.264Z,10.07
2016-04-02T00:16:55.001Z,10.06
2016-04-02T00:17:55.206Z,10.09
2016-04-02T00:18:55.584Z,9.99
2016-04-02T00:19:56.149Z,10.04
2016-04-02T00:20:54.918Z,10.06
2016-04-02T00:21:55.170Z,10.09
2016-04-02T00:22:54.845Z,10.06
2016-04-02T00:23:54.770Z,10.07
2016-04-02T00:24:54.741Z,10.01
2016-04-02T00:25:54.681Z,10.04
2016-04-02T00:26:54.653Z,9.97
2016-04-02T00:27:54.750Z,10.06
2016-04-02T00:28:54.674Z,10.03
2016-04-02T00:29:54.863Z,10.06
2016-04-02T00:30:54.616Z,10
2016-04-02T00:31:54.557Z,10.1
2016-04-02T00:32:54.574Z,10.06
2016-04-02T00:33:54.546Z,10.06
2016-04-02T00:34:54.549Z,10.04
2016-04-02T00:35:54.416Z,9.99
2016-04-02T00:36:54.496Z,10.07
2016-04-02T00:37:54.390Z,9.99
2016-04-02T00:38:54.331Z,10
2016-04-02T00:39:54.301Z,9.97
2016-04-02T00:40:54.321Z,9.96
2016-04-02T00:41:54.589Z,9.94
2016-04-02T00:42:54.294Z,10.01
2016-04-02T00:43:54.251Z,9.99
2016-04-02T00:44:54.237Z,9.99
2016-04-02T00:45:54.193Z,10.03
2016-04-02T00:46:54.164Z,9.99
2016-04-02T00:47:54.167Z,10
2016-04-02T00:48:53.983Z,9.97
2016-04-02T00:49:54.141Z,10
2016-04-02T00:50:54.081Z,10
2016-04-02T00:51:54.037Z,10
2016-04-02T00:52:53.993Z,10
2016-04-02T00:53:53.980Z,10
2016-04-02T00:54:53.936Z,10.04
2016-04-02T00:55:54.032Z,10.04
2016-04-02T00:56:53.879Z,10.01
2016-04-02T00:57:53.849Z,10.06
2016-04-02T00:58:53.853Z,10.04
2016-04-02T01:00:07.762Z,10.09
2016-04-02T01:00:53.843Z,10.06
2016-04-02T01:01:53.768Z,10.01
2016-04-02T01:02:53.754Z,10.04
2016-04-02T01:03:53.757Z,10.01
2016-04-02T01:04:54.088Z,10.09
2016-04-02T01:05:53.716Z,10.06
2016-04-02T01:06:53.687Z,10.06
2016-04-02T01:07:53.689Z,10.03
2016-04-02T01:08:53.630Z,10.03
2016-04-02T01:09:53.571Z,10.01
2016-04-02T01:10:53.557Z,10.04
2016-04-02T01:11:53.685Z,10.04
2016-04-02T01:12:53.547Z,10.07
2016-04-02T01:13:53.456Z,10.04
2016-04-02T01:14:53.505Z,10.01
2016-04-02T01:15:53.446Z,10.06
2016-04-02T01:16:53.495Z,10
2016-04-02T01:17:53.435Z,9.94
2016-04-02T01:18:53.500Z,9.99
2016-04-02T01:19:53.394Z,10.01
2016-04-02T01:20:53.287Z,9.99
2016-04-02T01:21:53.384Z,10.01
2016-04-02T01:22:53.512Z,10.1
2016-04-02T01:23:53.264Z,10
2016-04-02T01:24:54.438Z,9.96
2016-04-02T01:25:53.488Z,10.07
2016-04-02T01:26:53.272Z,9.97
2016-04-02T01:27:53.275Z,9.99
2016-04-02T01:28:53.497Z,9.97
2016-04-02T01:29:53.122Z,9.91
2016-04-02T01:30:53.483Z,10.01
2016-04-02T01:31:53.142Z,9.91
2016-04-02T01:32:53.052Z,9.96
2016-04-02T01:33:53.397Z,9.96
2016-04-02T01:34:53.150Z,9.97
2016-04-02T01:35:54.622Z,9.89
2016-04-02T01:36:53.265Z,9.86
2016-04-02T01:37:53.424Z,9.93
2016-04-02T01:38:53.443Z,9.81
2016-04-02T01:39:53.210Z,9.81
2016-04-02T01:40:53.073Z,9.79
2016-04-02T01:41:52.904Z,9.81
2016-04-02T01:42:52.718Z,9.79
2016-04-02T01:43:52.706Z,9.71
2016-04-02T01:44:53.724Z,9.63
2016-04-02T01:45:52.758Z,9.64
2016-04-02T01:46:52.807Z,9.7
2016-04-02T01:47:53.420Z,9.63
2016-04-02T01:48:52.969Z,9.67
2016-04-02T01:49:52.675Z,9.53
2016-04-02T01:50:52.661Z,9.5
2016-04-02T01:51:52.555Z,9.52
2016-04-02T01:52:51.980Z,9.53
2016-04-02T01:53:52.858Z,9.52
2016-04-02T01:54:52.469Z,9.46
2016-04-02T01:55:52.394Z,9.49
2016-04-02T01:56:52.577Z,9.34
2016-04-02T01:57:52.365Z,9.4
2016-04-02T01:58:52.341Z,9.43
2016-04-02T01:59:53.097Z,9.43
2016-04-02T02:00:52.401Z,9.35
2016-04-02T02:01:52.412Z,9.39
2016-04-02T02:02:52.207Z,9.43
2016-04-02T02:03:52.316Z,9.43
2016-04-02T02:04:52.407Z,9.4
2016-04-02T02:05:52.406Z,9.42
2016-04-02T02:06:52.922Z,9.38
2016-04-02T02:07:52.001Z,9.34
2016-04-02T02:08:52.356Z,9.42
2016-04-02T02:09:52.232Z,9.45
2016-04-02T02:10:52.139Z,9.35
2016-04-02T02:11:51.953Z,9.34
2016-04-02T02:12:52.066Z,9.39
2016-04-02T02:13:51.927Z,9.32
2016-04-02T02:14:52.250Z,9.25
2016-04-02T02:15:52.784Z,9.31
2016-04-02T02:16:52.099Z,9.34
2016-04-02T02:17:52.179Z,9.25
2016-04-02T02:18:51.978Z,9.24
2016-04-02T02:19:52.402Z,9.28
2016-04-02T02:20:51.857Z,9.28
2016-04-02T02:21:51.673Z,9.3
2016-04-02T02:22:51.894Z,9.27
2016-04-02T02:23:51.865Z,9.27
2016-04-02T02:24:51.775Z,9.3
2016-04-02T02:25:51.683Z,9.25
2016-04-02T02:26:51.717Z,9.27
2016-04-02T02:27:51.534Z,9.27
2016-04-02T02:28:51.567Z,9.28
2016-04-02T02:29:51.539Z,9.28
2016-04-02T02:30:51.837Z,9.31
2016-04-02T02:31:51.419Z,9.25
2016-04-02T02:32:51.437Z,9.28
2016-04-02T02:33:51.471Z,9.31
2016-04-02T02:34:51.334Z,9.24
2016-04-02T02:35:51.836Z,9.28
2016-04-02T02:36:51.401Z,9.23
2016-04-02T02:37:51.779Z,9.24
2016-04-02T02:38:51.406Z,9.23
2016-04-02T02:39:51.269Z,9.2
2016-04-02T02:40:51.411Z,9.24
2016-04-02T02:41:51.322Z,9.13
2016-04-02T02:42:51.324Z,9.15
2016-04-02T02:43:51.202Z,9.2
2016-04-02T02:44:51.470Z,9.06
2016-04-02T02:45:51.566Z,9.09
2016-04-02T02:46:51.038Z,8.99
2016-04-02T02:47:50.963Z,8.97
2016-04-02T02:48:50.355Z,8.97
2016-04-02T02:49:51.108Z,9.01
2016-04-02T02:50:51.110Z,8.96
2016-04-02T02:51:51.816Z,8.96
2016-04-02T02:52:50.882Z,8.96
2016-04-02T02:53:50.931Z,8.93
2016-04-02T02:54:51.481Z,8.91
2016-04-02T02:55:50.655Z,8.87
2016-04-02T02:56:50.752Z,8.91
2016-04-02T02:57:51.365Z,8.91
2016-04-02T02:58:50.710Z,8.97
2016-04-02T02:59:50.854Z,8.87
2016-04-02T03:00:50.684Z,8.99
2016-04-02T03:01:50.781Z,8.88
2016-04-02T03:02:50.878Z,8.87
2016-04-02T03:03:50.551Z,8.88
2016-04-02T03:04:50.759Z,8.86
2016-04-02T03:05:50.573Z,8.86
2016-04-02T03:06:50.498Z,8.87
2016-04-02T03:07:50.548Z,8.9
2016-04-02T03:08:50.582Z,8.9
2016-04-02T03:09:50.506Z,8.87
2016-04-02T03:10:50.431Z,8.79
2016-04-02T03:11:50.527Z,8.9
2016-04-02T03:12:50.405Z,8.86
2016-04-02T03:13:50.345Z,8.79
2016-04-02T03:14:50.300Z,8.76
2016-04-02T03:15:50.397Z,8.79
2016-04-02T03:16:50.383Z,8.75
2016-04-02T03:17:51.011Z,8.72
2016-04-02T03:18:50.249Z,8.76
2016-04-02T03:19:50.939Z,8.68
2016-04-02T03:20:50.255Z,8.69
2016-04-02T03:21:50.179Z,8.81
2016-04-02T03:22:50.369Z,8.69
2016-04-02T03:23:50.371Z,8.65
2016-04-02T03:24:50.124Z,8.62
2016-04-02T03:25:50.299Z,8.58
2016-04-02T03:26:50.035Z,8.62
2016-04-02T03:27:49.991Z,8.6
2016-04-02T03:28:50.885Z,8.6
2016-04-02T03:29:50.169Z,8.54
2016-04-02T03:30:50.157Z,8.58
2016-04-02T03:31:49.877Z,8.57
2016-04-02T03:32:50.162Z,8.58
2016-04-02T03:33:49.867Z,8.58
2016-04-02T03:34:50.026Z,8.57
2016-04-02T03:35:49.748Z,8.57
2016-04-02T03:36:49.735Z,8.6
2016-04-02T03:37:49.675Z,8.57
2016-04-02T03:38:49.771Z,8.6
2016-04-02T03:39:49.742Z,8.57
2016-04-02T03:40:49.651Z,8.47
2016-04-02T03:41:50.123Z,8.54
2016-04-02T03:42:49.611Z,8.53
2016-04-02T03:43:49.692Z,8.55
2016-04-02T03:44:49.616Z,8.57
2016-04-02T03:45:49.978Z,8.54
2016-04-02T03:46:49.450Z,8.55
2016-04-02T03:47:49.702Z,8.47
2016-04-02T03:48:49.892Z,8.5
2016-04-02T03:49:49.472Z,8.47
2016-04-02T03:50:49.335Z,8.47
2016-04-02T03:51:49.602Z,8.54
2016-04-02T03:52:49.433Z,8.5
2016-04-02T03:53:49.343Z,8.48
2016-04-02T03:54:49.423Z,8.5
2016-04-02T03:55:49.254Z,8.48
2016-04-02T03:56:49.288Z,8.37
2016-04-02T03:57:49.494Z,8.4
2016-04-02T03:58:49.357Z,8.4
2016-04-02T03:59:49.124Z,8.39
2016-04-02T04:00:49.080Z,8.4
2016-04-02T04:01:49.442Z,8.4
2016-04-02T04:02:49.304Z,8.32
2016-04-02T04:03:49.463Z,8.36
2016-04-02T04:04:49.310Z,8.39
2016-04-02T04:05:49.016Z,8.4
2016-04-02T04:06:48.926Z,8.39
2016-04-02T04:07:49.365Z,8.36
2016-04-02T04:08:48.977Z,8.47
2016-04-02T04:09:48.855Z,8.4
2016-04-02T04:10:48.967Z,8.4
2016-04-02T04:11:48.892Z,8.37
2016-04-02T04:12:49.566Z,8.37
2016-04-02T04:13:49.209Z,8.45
2016-04-02T04:14:48.837Z,8.33
2016-04-02T04:15:48.074Z,8.35
2016-04-02T04:16:49.186Z,8.37
2016-04-02T04:17:49.344Z,8.35
2016-04-02T04:18:48.863Z,8.3
2016-04-02T04:19:49.022Z,8.36
2016-04-02T04:20:48.884Z,8.37
2016-04-02T04:21:48.794Z,8.35
2016-04-02T04:22:49.077Z,8.35
2016-04-02T04:23:48.674Z,8.25
2016-04-02T04:24:48.599Z,8.3
2016-04-02T04:25:48.429Z,8.3
2016-04-02T04:26:49.869Z,8.32
2016-04-02T04:27:48.746Z,8.29
2016-04-02T04:28:48.530Z,8.21
2016-04-02T04:29:48.657Z,8.14
2016-04-02T04:30:48.285Z,8.2
2016-04-02T04:31:48.273Z,8.21
2016-04-02T04:32:48.291Z,8.26
2016-04-02T04:33:48.325Z,8.18
2016-04-02T04:34:48.235Z,8.2
2016-04-02T04:35:48.268Z,8.15
2016-04-02T04:36:48.177Z,8.2
2016-04-02T04:37:48.180Z,8.21
2016-04-02T04:38:48.104Z,8.2
2016-04-02T04:39:48.092Z,8.2
2016-04-02T04:40:48.094Z,8.15
2016-04-02T04:41:48.222Z,8.15
2016-04-02T04:42:48.147Z,8.08
2016-04-02T04:43:48.040Z,8.12
2016-04-02T04:44:48.262Z,8.12
2016-04-02T04:45:48.498Z,8.12
2016-04-02T04:46:47.892Z,8.08
2016-04-02T04:47:48.067Z,8.11
2016-04-02T04:48:48.459Z,8.15
2016-04-02T04:49:48.009Z,8.17
2016-04-02T04:50:47.996Z,8.17
2016-04-02T04:51:48.358Z,8.12
2016-04-02T04:52:48.955Z,8.08
2016-04-02T04:53:48.676Z,8.08
2016-04-02T04:54:48.038Z,8.1
2016-04-02T04:55:48.057Z,8.02
2016-04-02T04:56:47.934Z,8.04
2016-04-02T04:57:48.156Z,8.07
2016-04-02T04:58:47.955Z,7.99
2016-04-02T04:59:47.599Z,8.02
2016-04-02T05:00:47.524Z,8
2016-04-02T05:01:47.619Z,7.94
2016-04-02T05:02:47.451Z,7.92
2016-04-02T05:03:47.624Z,7.92
2016-04-02T05:04:47.518Z,7.97
2016-04-02T05:05:47.365Z,7.96
2016-04-02T05:06:47.351Z,7.94
2016-04-02T05:07:47.323Z,7.94
2016-04-02T05:08:47.356Z,7.89
2016-04-02T05:09:47.265Z,7.9
2016-04-02T05:10:47.253Z,7.94
2016-04-02T05:11:47.192Z,7.92
2016-04-02T05:12:47.212Z,7.9
2016-04-02T05:13:47.120Z,7.96
2016-04-02T05:14:47.123Z,7.87
2016-04-02T05:15:47.095Z,7.97
2016-04-02T05:16:47.081Z,7.89
2016-04-02T05:17:47.037Z,7.92
2016-04-02T05:18:47.024Z,7.9
2016-04-02T05:19:47.089Z,7.9
2016-04-02T05:20:46.983Z,7.82
2016-04-02T05:21:46.939Z,7.87
2016-04-02T05:22:46.911Z,7.87
2016-04-02T05:23:46.914Z,7.96
2016-04-02T05:24:46.869Z,7.94
2016-04-02T05:25:46.825Z,7.92
2016-04-02T05:26:47.030Z,8
2016-04-02T05:27:46.783Z,7.99
2016-04-02T05:28:46.771Z,8.02
2016-04-02T05:29:46.757Z,8.02
2016-04-02T05:30:46.791Z,8.03
2016-04-02T05:31:46.699Z,8.04
2016-04-02T05:32:46.671Z,8.12
2016-04-02T05:33:46.940Z,8.14
2016-04-02T05:34:46.645Z,8.11
2016-04-02T05:35:46.570Z,8.14
2016-04-02T05:36:46.526Z,8.15
2016-04-02T05:37:46.576Z,8.2
2016-04-02T05:38:46.485Z,8.17
2016-04-02T05:39:46.550Z,8.18
2016-04-02T05:40:46.459Z,8.14
2016-04-02T05:41:46.414Z,8.15
2016-04-02T05:42:46.401Z,8.2
2016-04-02T05:43:46.373Z,8.28
2016-04-02T05:44:46.375Z,8.32
2016-04-02T05:45:46.316Z,8.32
2016-04-02T05:46:46.318Z,8.28
2016-04-02T05:47:46.274Z,8.4
2016-04-02T05:48:46.308Z,8.42
2016-04-02T05:49:46.217Z,8.26
2016-04-02T05:50:46.251Z,8.36
2016-04-02T05:51:46.176Z,8.44
2016-04-02T05:52:46.163Z,8.39
2016-04-02T05:53:46.119Z,8.45
2016-04-02T05:54:46.106Z,8.47
2016-04-02T05:55:46.093Z,8.48
2016-04-02T05:56:46.064Z,8.53
2016-04-02T05:57:46.035Z,8.57
2016-04-02T05:58:46.007Z,8.55
2016-04-02T05:59:45.932Z,8.58
2016-04-02T06:00:46.013Z,8.62
2016-04-02T06:01:45.906Z,8.66
2016-04-02T06:02:45.940Z,8.58
2016-04-02T06:03:45.896Z,8.62
2016-04-02T06:04:45.789Z,8.72
2016-04-02T06:05:45.916Z,8.71
2016-04-02T06:06:45.794Z,8.72
2016-04-02T06:07:45.718Z,8.78
2016-04-02T06:08:45.768Z,8.81
2016-04-02T06:09:45.709Z,8.87
2016-04-02T06:10:45.695Z,8.97
2016-04-02T06:11:45.698Z,8.88
2016-04-02T06:12:45.591Z,9.04
2016-04-02T06:13:45.625Z,8.96
2016-04-02T06:14:45.706Z,9.02
2016-04-02T06:15:45.897Z,8.99
2016-04-02T06:16:45.493Z,8.97
2016-04-02T06:17:45.449Z,8.93
2016-04-02T06:18:45.436Z,8.96
2016-04-02T06:19:45.423Z,8.93
2016-04-02T06:20:45.363Z,8.97
2016-04-02T06:21:45.397Z,9.02
2016-04-02T06:22:45.369Z,8.99
2016-04-02T06:23:45.386Z,8.97
2016-04-02T06:24:45.296Z,9.04
2016-04-02T06:25:45.266Z,9.04
2016-04-02T06:26:45.238Z,9.05
2016-04-02T06:27:45.225Z,9.04
2016-04-02T06:28:45.165Z,9.09
2016-04-02T06:29:45.168Z,9.06
2016-04-02T06:30:45.108Z,9.13
2016-04-02T06:31:45.095Z,9.18
2016-04-02T06:32:45.068Z,9.24
2016-04-02T06:33:45.054Z,9.2
2016-04-02T06:34:45.198Z,9.25
2016-04-02T06:35:44.996Z,9.21
2016-04-02T06:36:44.968Z,9.28
2016-04-02T06:37:44.940Z,9.31
2016-04-02T06:38:44.896Z,9.3
2016-04-02T06:39:44.962Z,9.2
2016-04-02T06:40:44.871Z,9.28
2016-04-02T06:41:44.857Z,9.35
2016-04-02T06:42:44.782Z,9.23
2016-04-02T06:43:44.785Z,9.31
2016-04-02T06:44:47.818Z,9.39
2016-04-02T06:45:44.728Z,9.32
2016-04-02T06:46:44.808Z,9.43
2016-04-02T06:47:44.670Z,9.42
2016-04-02T06:48:44.657Z,9.4
2016-04-02T06:49:44.628Z,9.42
2016-04-02T06:50:44.584Z,9.34
2016-04-02T06:51:44.602Z,9.5
2016-04-02T06:52:44.605Z,9.53
2016-04-02T06:53:44.639Z,9.61
2016-04-02T06:54:44.564Z,9.61
2016-04-02T06:55:44.551Z,9.71
2016-04-02T06:56:58.366Z,9.79
2016-04-02T06:57:44.478Z,9.85
2016-04-02T06:58:44.449Z,9.93
2016-04-02T06:59:44.421Z,9.91
2016-04-02T07:00:44.439Z,9.89
2016-04-02T07:01:44.332Z,10.03
2016-04-02T07:02:44.413Z,10.04
2016-04-02T07:03:44.290Z,10.09
2016-04-02T07:04:44.512Z,10.21
2016-04-02T07:05:44.265Z,10.28
2016-04-02T07:06:44.237Z,10.44
2016-04-02T07:07:44.145Z,10.55
2016-04-02T07:08:44.211Z,10.68
2016-04-02T07:09:44.104Z,10.66
2016-04-02T07:10:44.107Z,10.83
2016-04-02T07:11:44.063Z,10.78
2016-04-02T07:12:44.096Z,10.78
2016-04-02T07:13:44.006Z,10.84
2016-04-02T07:14:44.024Z,10.81
2016-04-02T07:15:43.933Z,10.92
2016-04-02T07:16:44.717Z,10.92
2016-04-02T07:17:43.970Z,10.84
2016-04-02T07:18:44.019Z,10.98
2016-04-02T07:19:43.897Z,11.02
2016-04-02T07:20:43.931Z,11.07
2016-04-02T07:21:44.277Z,11.03
2016-04-02T07:22:43.811Z,11.1
2016-04-02T07:23:43.720Z,11.14
2016-04-02T07:24:43.800Z,11.11
2016-04-02T07:25:43.710Z,11.19
2016-04-02T07:26:44.008Z,11.31
2016-04-02T07:27:44.027Z,11.27
2016-04-02T07:28:43.655Z,11.32
2016-04-02T07:29:43.611Z,11.36
2016-04-02T07:30:43.583Z,11.39
2016-04-02T07:31:43.585Z,11.36
2016-04-02T07:32:43.713Z,11.44
2016-04-02T07:33:43.512Z,11.5
2016-04-02T07:34:57.280Z,11.59
2016-04-02T07:35:43.440Z,11.59
2016-04-02T07:36:43.740Z,11.62
2016-04-02T07:37:43.413Z,11.64
2016-04-02T07:38:43.432Z,11.7
2016-04-02T07:39:43.387Z,11.65
2016-04-02T07:40:43.328Z,11.54
2016-04-02T07:41:43.503Z,11.65
2016-04-02T07:42:43.381Z,11.78
2016-04-02T07:43:43.290Z,11.82
2016-04-02T07:44:43.245Z,11.82
2016-04-02T07:45:43.264Z,11.83
2016-04-02T07:46:43.250Z,11.78
2016-04-02T07:47:43.456Z,11.89
2016-04-02T07:48:43.147Z,11.93
2016-04-02T07:49:43.117Z,11.85
2016-04-02T07:50:43.074Z,11.99
2016-04-02T07:51:43.108Z,11.96
2016-04-02T07:52:43.017Z,11.99
2016-04-02T07:53:43.129Z,12.11
2016-04-02T07:54:43.459Z,12.02
2016-04-02T07:55:42.978Z,12.13
2016-04-02T07:56:42.949Z,12.2
2016-04-02T07:57:42.921Z,12.16
2016-04-02T07:58:42.860Z,12.19
2016-04-02T07:59:42.832Z,12.26
2016-04-02T08:00:42.835Z,12.3
2016-04-02T08:01:43.010Z,12.31
2016-04-02T08:02:43.138Z,12.37
2016-04-02T08:03:42.734Z,12.33
2016-04-02T08:04:43.018Z,12.33
2016-04-02T08:05:42.818Z,12.42
2016-04-02T08:06:42.710Z,12.44
2016-04-02T08:07:42.635Z,12.42
2016-04-02T08:08:42.606Z,12.56
2016-04-02T08:09:42.718Z,12.42
2016-04-02T08:10:42.721Z,12.52
2016-04-02T08:11:42.598Z,12.56
2016-04-02T08:12:42.554Z,12.51
2016-04-02T08:13:42.495Z,12.59
2016-04-02T08:14:42.498Z,12.52
2016-04-02T08:15:42.563Z,12.66
2016-04-02T08:16:41.628Z,12.64
2016-04-02T08:17:42.443Z,12.71
2016-04-02T08:18:43.023Z,12.75
2016-04-02T08:19:42.386Z,12.7
2016-04-02T08:20:42.389Z,12.77
2016-04-02T08:21:42.392Z,12.79
2016-04-02T08:23:13.629Z,12.84
2016-04-02T08:23:42.647Z,12.87
2016-04-02T08:24:42.415Z,12.88
2016-04-02T08:25:42.261Z,12.92
2016-04-02T08:26:42.327Z,12.93
2016-04-02T08:27:42.141Z,12.89
2016-04-02T08:28:42.175Z,13.03
2016-04-02T08:29:42.163Z,12.92
2016-04-02T08:30:42.103Z,13.06
2016-04-02T08:31:42.169Z,13.04
2016-04-02T08:32:42.077Z,13.06
2016-04-02T08:33:42.064Z,13.11
2016-04-02T08:34:41.988Z,13.22
2016-04-02T08:35:41.976Z,13.17
2016-04-02T08:36:41.978Z,13.18
2016-04-02T08:37:41.887Z,13.11
2016-04-02T08:38:41.890Z,13.21
2016-04-02T08:39:41.846Z,13.27
2016-04-02T08:40:41.895Z,13.24
2016-04-02T08:41:41.805Z,13.22
2016-04-02T08:42:41.854Z,13.32
2016-04-02T08:43:41.763Z,13.3
2016-04-02T08:44:41.781Z,13.33
2016-04-02T08:45:41.846Z,13.38
2016-04-02T08:46:41.990Z,13.4
2016-04-02T08:47:41.696Z,13.43
2016-04-02T08:48:42.448Z,13.51
2016-04-02T08:49:42.795Z,13.56
2016-04-02T08:50:41.641Z,13.59
2016-04-02T08:51:41.566Z,13.55
2016-04-02T08:52:41.584Z,13.59
2016-04-02T08:53:55.961Z,13.54
2016-04-02T08:55:55.342Z,13.55
2016-04-02T08:56:55.814Z,13.65
2016-04-02T08:57:41.129Z,13.65
2016-04-02T08:58:41.444Z,13.61
2016-04-02T08:59:41.431Z,13.63
2016-04-02T09:00:41.386Z,13.62
2016-04-02T09:01:41.421Z,13.63
2016-04-02T09:03:41.333Z,13.69
2016-04-02T09:04:41.304Z,13.7
2016-04-02T09:05:41.322Z,13.67
2016-04-02T09:06:41.231Z,13.73
2016-04-02T09:07:41.171Z,13.74
2016-04-02T09:08:41.173Z,13.73
2016-04-02T09:09:41.364Z,13.74
2016-04-02T09:10:41.179Z,13.76
2016-04-02T09:11:41.088Z,13.74
2016-04-02T09:12:41.169Z,13.89
2016-04-02T09:13:41.109Z,13.88
2016-04-02T09:14:41.034Z,13.83
2016-04-02T09:15:41.084Z,13.89
2016-04-02T09:16:41.040Z,13.92
2016-04-02T09:17:41.012Z,13.96
2016-04-02T09:18:41.045Z,13.99
2016-04-02T09:19:40.907Z,13.92
2016-04-02T09:20:40.925Z,14.06
2016-04-02T09:21:40.865Z,14.06
2016-04-02T09:22:40.899Z,14.02
2016-04-02T09:23:40.886Z,13.99
2016-04-02T09:24:40.842Z,14.07
2016-04-02T09:25:40.767Z,14.06
2016-04-02T09:26:40.848Z,14.04
2016-04-02T09:27:40.756Z,14.21
2016-04-02T09:28:40.759Z,14.2
2016-04-02T09:29:40.652Z,14.32
2016-04-02T09:30:40.780Z,14.35
2016-04-02T09:31:40.610Z,14.27
2016-04-02T09:32:40.629Z,14.46
2016-04-02T09:33:40.632Z,14.42
2016-04-02T09:34:40.728Z,14.47
2016-04-02T09:35:54.403Z,14.52
2016-04-02T09:36:40.530Z,14.56
2016-04-02T09:37:40.674Z,14.64
2016-04-02T09:38:40.488Z,14.61
2016-04-02T09:39:40.492Z,14.61
2016-04-02T09:40:40.448Z,14.68
2016-04-02T09:41:40.404Z,14.68
2016-04-02T09:42:40.374Z,14.69
2016-04-02T09:43:40.346Z,14.74
2016-04-02T09:44:40.318Z,14.71
2016-04-02T09:45:40.289Z,14.81
2016-04-02T09:46:40.823Z,14.86
2016-04-02T09:47:40.262Z,14.88
2016-04-02T09:48:40.266Z,14.94
2016-04-02T09:49:39.831Z,14.87
2016-04-02T09:50:40.209Z,14.94
2016-04-02T09:51:40.148Z,14.99
2016-04-02T09:52:40.167Z,15.06
2016-04-02T09:53:40.123Z,14.98
2016-04-02T09:54:40.094Z,15.02
2016-04-02T09:55:40.034Z,15.02
2016-04-02T09:56:40.022Z,14.98
2016-04-02T09:57:40.134Z,15.08
2016-04-02T09:58:40.043Z,15.06
2016-04-02T09:59:39.967Z,15.06
2016-04-02T10:00:40.002Z,15.12
2016-04-02T10:01:40.222Z,15.08
2016-04-02T10:02:39.913Z,15.12
2016-04-02T10:03:39.885Z,15.2
2016-04-02T10:04:40.013Z,15.11
2016-04-02T10:05:39.812Z,15.17
2016-04-02T10:06:40.002Z,15.21
2016-04-02T10:07:39.911Z,15.26
2016-04-02T10:08:39.835Z,15.3
2016-04-02T10:09:40.166Z,15.21
2016-04-02T10:10:39.715Z,15.33
2016-04-02T10:11:39.718Z,15.38
2016-04-02T10:12:39.737Z,15.42
2016-04-02T10:13:39.943Z,15.43
2016-04-02T10:14:39.680Z,15.43
2016-04-02T10:15:38.823Z,15.41
2016-04-02T10:16:39.623Z,15.49
2016-04-02T10:17:39.593Z,15.52
2016-04-02T10:18:39.940Z,15.54
2016-04-02T10:19:39.583Z,15.6
2016-04-02T10:20:40.070Z,15.6
2016-04-02T10:21:39.651Z,15.57
2016-04-02T10:22:39.576Z,15.68
2016-04-02T10:23:39.470Z,15.7
2016-04-02T10:24:39.503Z,15.74
2016-04-02T10:25:39.537Z,15.81
2016-04-02T10:26:39.649Z,15.74
2016-04-02T10:27:39.433Z,15.82
2016-04-02T10:28:39.358Z,15.81
2016-04-02T10:29:39.283Z,15.92
2016-04-02T10:30:39.723Z,16.06
2016-04-02T10:31:39.335Z,16.06
2016-04-02T10:32:39.353Z,16.12
2016-04-02T10:33:39.293Z,16.07
2016-04-02T10:34:39.218Z,16.2
2016-04-02T10:35:39.173Z,16.16
2016-04-02T10:36:39.176Z,16.31
2016-04-02T10:37:39.085Z,16.34
2016-04-02T10:38:38.260Z,16.4
2016-04-02T10:40:39.484Z,16.48
2016-04-02T10:41:39.252Z,16.5
2016-04-02T10:42:39.021Z,16.49
2016-04-02T10:44:38.932Z,16.5
2016-04-02T10:45:39.043Z,16.52
2016-04-02T10:46:38.890Z,16.55
2016-04-02T10:47:38.940Z,16.49
2016-04-02T10:48:38.834Z,16.55
2016-04-02T10:49:38.821Z,16.56
2016-04-02T10:50:38.839Z,16.59
2016-04-02T10:51:38.873Z,16.59
2016-04-02T10:52:38.766Z,16.63
2016-04-02T10:53:38.754Z,16.65
2016-04-02T10:54:38.709Z,16.68
2016-04-02T10:55:38.681Z,16.67
2016-04-02T10:56:38.512Z,16.74
2016-04-02T10:57:38.733Z,16.68
2016-04-02T10:58:38.658Z,16.63
2016-04-02T10:59:38.863Z,16.65
2016-04-02T11:00:38.803Z,16.65
2016-04-02T11:01:38.618Z,16.75
2016-04-02T11:02:38.579Z,16.78
2016-04-02T11:03:38.570Z,16.81
2016-04-02T11:04:38.531Z,16.9
2016-04-02T11:05:39.039Z,16.89
2016-04-02T11:06:38.436Z,16.93
2016-04-02T11:07:38.387Z,17
2016-04-02T11:08:38.355Z,17
2016-04-02T11:09:38.415Z,17
2016-04-02T11:10:38.460Z,17.06
2016-04-02T11:11:38.819Z,17.07
2016-04-02T11:12:38.273Z,17.11
2016-04-02T11:13:38.211Z,17.13
2016-04-02T11:14:38.181Z,17.17
2016-04-02T11:15:38.166Z,17.18
2016-04-02T11:16:38.136Z,17.2
2016-04-02T11:17:38.170Z,17.28
2016-04-02T11:18:38.095Z,17.23
2016-04-02T11:20:38.084Z,17.3
2016-04-02T11:21:38.023Z,17.29
2016-04-02T11:22:38.011Z,17.46
2016-04-02T11:23:38.029Z,17.38
2016-04-02T11:24:37.970Z,17.5
2016-04-02T11:25:37.973Z,17.55
2016-04-02T11:26:38.068Z,17.59
2016-04-02T11:27:37.931Z,17.64
2016-04-02T11:28:37.886Z,17.71
2016-04-02T11:29:37.936Z,17.7
2016-04-02T11:30:37.939Z,17.79
2016-04-02T11:31:37.863Z,17.87
2016-04-02T11:32:37.897Z,17.94
2016-04-02T11:33:38.025Z,18.04
2016-04-02T11:34:38.028Z,18.03
2016-04-02T11:35:37.718Z,18.09
2016-04-02T11:36:40.752Z,18.07
2016-04-02T11:37:37.880Z,18.09
2016-04-02T11:38:38.147Z,18.07
2016-04-02T11:39:38.135Z,18.09
2016-04-02T11:40:39.059Z,18.09
2016-04-02T11:41:40.858Z,18.03
2016-04-02T11:42:38.158Z,18.02
2016-04-02T11:43:37.582Z,18.13
2016-04-02T11:44:37.680Z,18.42
2016-04-02T11:45:37.541Z,18.5
2016-04-02T11:46:37.638Z,18.57
2016-04-02T11:47:37.562Z,18.74
2016-04-02T11:48:37.440Z,18.79
2016-04-02T11:49:37.927Z,18.92
2016-04-02T11:50:37.446Z,19.35
2016-04-02T11:51:37.918Z,19.72
2016-04-02T11:52:41.201Z,19.79
2016-04-02T11:53:38.329Z,19.73
2016-04-02T11:54:37.565Z,19.6
2016-04-02T11:55:37.975Z,19.66
2016-04-02T11:56:37.945Z,19.5
2016-04-02T11:57:38.730Z,19.55
2016-04-02T11:58:39.373Z,19.58
2016-04-02T11:59:39.547Z,19.65
2016-04-02T12:00:38.067Z,19.69
2016-04-02T12:01:53.350Z,19.5
2016-04-02T12:02:41.759Z,19.4
2016-04-02T12:03:37.386Z,19.23
2016-04-02T12:04:37.920Z,19.35
2016-04-02T12:05:38.033Z,19.18
2016-04-02T12:06:41.613Z,19.15
2016-04-02T12:07:37.319Z,19.23
2016-04-02T12:08:38.305Z,19.23
2016-04-02T12:09:37.246Z,19.29
2016-04-02T12:10:37.124Z,19.48
2016-04-02T12:11:50.799Z,19.72
2016-04-02T12:12:39.708Z,20.15
2016-04-02T12:13:36.929Z,20.54
2016-04-02T12:14:37.010Z,20.69
2016-04-02T12:15:37.404Z,20.74
2016-04-02T12:16:40.562Z,20.68
2016-04-02T12:17:37.441Z,20.54
2016-04-02T12:18:37.333Z,20.42
2016-04-02T12:19:37.430Z,20.42
2016-04-02T12:20:39.042Z,20.3
2016-04-02T12:21:41.185Z,20.33
2016-04-02T12:22:38.235Z,20.28
2016-04-02T12:23:37.534Z,20.13
2016-04-02T12:24:36.693Z,20.1
2016-04-02T12:25:37.383Z,20.08
2016-04-02T12:26:36.918Z,19.9
2016-04-02T12:27:36.842Z,19.83
2016-04-02T12:28:36.860Z,19.9
2016-04-02T12:29:36.676Z,19.8
2016-04-02T12:30:36.819Z,19.84
2016-04-02T12:31:36.728Z,19.88
2016-04-02T12:32:36.714Z,19.91
2016-04-02T12:33:36.717Z,19.98
2016-04-02T12:34:36.797Z,20.31
2016-04-02T12:35:36.597Z,20.51
2016-04-02T12:36:36.788Z,20.72
2016-04-02T12:37:36.572Z,20.74
2016-04-02T12:38:36.762Z,20.71
2016-04-02T12:39:36.624Z,20.72
2016-04-02T12:40:36.596Z,20.84
2016-04-02T12:41:36.363Z,20.84
2016-04-02T12:42:36.305Z,20.91
2016-04-02T12:43:36.385Z,21.08
2016-04-02T12:44:36.325Z,21.14
2016-04-02T12:45:36.281Z,21.23
2016-04-02T12:46:37.190Z,21.57
2016-04-02T12:47:36.177Z,22.16
2016-04-02T12:48:36.227Z,22.54
2016-04-02T12:49:36.245Z,22.59
2016-04-02T12:50:36.607Z,22.53
2016-04-02T12:51:36.843Z,22.54
2016-04-02T12:52:36.175Z,22.44
2016-04-02T12:53:36.240Z,22.65
2016-04-02T12:54:36.102Z,22.64
2016-04-02T12:55:36.277Z,22.71
2016-04-02T12:56:36.123Z,22.69
2016-04-02T12:57:36.157Z,22.84
2016-04-02T12:58:36.019Z,23.15
2016-04-02T12:59:36.350Z,23.71
2016-04-02T13:00:36.024Z,23.87
2016-04-02T13:01:36.308Z,23.85
2016-04-02T13:02:35.905Z,23.68
2016-04-02T13:03:36.033Z,23.53
2016-04-02T13:04:36.036Z,23.65
2016-04-02T13:05:35.866Z,23.79
2016-04-02T13:06:35.884Z,23.85
2016-04-02T13:07:35.933Z,23.83
2016-04-02T13:08:35.921Z,23.55
2016-04-02T13:09:36.095Z,23.43
2016-04-02T13:10:36.083Z,23.43
2016-04-02T13:11:35.758Z,23.32
2016-04-02T13:12:35.900Z,23.23
2016-04-02T13:13:35.700Z,23.34